createdAt,value
2017-09-30T00:02:16.719Z,100517.50
2017-09-30T00:04:44.114Z,100519.53
2017-09-30T00:07:11.523Z,100519.65
2017-09-30T00:09:38.935Z,100522.48
2017-09-30T00:12:06.331Z,100515.70
2017-09-30T00:14:33.731Z,100512.86
2017-09-30T00:17:01.129Z,100523.70
2017-09-30T00:19:28.530Z,100526.14
2017-09-30T00:21:55.927Z,100522.65
2017-09-30T00:24:23.338Z,100518.47
2017-09-30T00:26:50.740Z,100522.37
2017-09-30T00:29:18.134Z,100522.51
2017-09-30T00:31:45.536Z,100517.91
2017-09-30T00:34:12.938Z,100523.45
2017-09-30T00:36:40.342Z,100520.47
2017-09-30T00:39:07.747Z,100524.79
2017-09-30T00:41:35.155Z,100526.02
2017-09-30T00:44:02.547Z,100521.69
2017-09-30T00:46:29.943Z,100518.27
2017-09-30T00:48:57.373Z,100519.23
2017-09-30T00:51:24.771Z,100516.81
2017-09-30T00:53:52.170Z,100511.23
2017-09-30T00:56:19.575Z,100520.30
2017-09-30T00:58:46.982Z,100521.51
2017-09-30T01:01:14.383Z,100514.33
2017-09-30T01:03:41.777Z,100515.43
2017-09-30T01:06:09.178Z,100522.86
2017-09-30T01:08:36.574Z,100519.88
2017-09-30T01:11:03.975Z,100523.39
2017-09-30T01:13:31.373Z,100532.03
2017-09-30T01:15:58.787Z,100522.95
2017-09-30T01:18:26.182Z,100530.00
2017-09-30T01:20:53.575Z,100536.36
2017-09-30T01:23:20.974Z,100542.04
2017-09-30T01:25:48.384Z,100539.75
2017-09-30T01:28:15.783Z,100533.50
2017-09-30T01:30:43.178Z,100543.80
2017-09-30T01:33:10.585Z,100543.13
2017-09-30T01:35:37.985Z,100543.84
2017-09-30T01:38:05.383Z,100544.26
2017-09-30T01:40:32.786Z,100539.77
2017-09-30T01:43:00.182Z,100542.06
2017-09-30T01:45:27.623Z,100539.48
2017-09-30T01:47:55.015Z,100533.78
2017-09-30T01:50:22.422Z,100530.94
2017-09-30T01:52:49.818Z,100534.75
2017-09-30T01:55:17.214Z,100536.10
2017-09-30T01:57:44.618Z,100535.55
2017-09-30T02:00:12.014Z,100560.86
2017-09-30T02:02:39.418Z,100568.30
2017-09-30T02:05:06.815Z,100574.70
2017-09-30T02:07:34.218Z,100581.30
2017-09-30T02:10:01.614Z,100584.56
2017-09-30T02:12:29.026Z,100599.37
2017-09-30T02:14:56.417Z,100598.51
2017-09-30T02:17:23.813Z,100577.53
2017-09-30T02:19:51.215Z,100575.00
2017-09-30T02:22:18.606Z,100567.48
2017-09-30T02:24:46.010Z,100571.83
2017-09-30T02:27:13.408Z,100553.80
2017-09-30T02:29:40.810Z,100546.14
2017-09-30T02:32:08.231Z,100546.50
2017-09-30T02:34:35.627Z,100541.41
2017-09-30T02:37:03.033Z,100545.05
2017-09-30T02:39:30.426Z,100541.13
2017-09-30T02:41:57.830Z,100538.63
2017-09-30T02:44:25.227Z,100529.78
2017-09-30T02:46:52.637Z,100526.62
2017-09-30T02:49:20.031Z,100526.61
2017-09-30T02:51:47.426Z,100513.00
2017-09-30T02:54:14.830Z,100504.61
2017-09-30T02:56:42.229Z,100502.80
2017-09-30T02:59:09.634Z,100501.21
2017-09-30T03:01:37.040Z,100501.64
2017-09-30T03:04:04.447Z,100495.98
2017-09-30T03:06:31.842Z,100482.50
2017-09-30T03:08:59.234Z,100477.45
2017-09-30T03:11:26.642Z,100479.03
2017-09-30T03:13:54.040Z,100463.02
2017-09-30T03:16:21.445Z,100462.48
2017-09-30T03:18:48.846Z,100467.59
2017-09-30T03:21:16.255Z,100456.17
2017-09-30T03:23:43.647Z,100459.86
2017-09-30T03:26:11.046Z,100454.75
2017-09-30T03:28:38.450Z,100453.32
2017-09-30T03:31:05.846Z,100455.80
2017-09-30T03:33:33.255Z,100451.84
2017-09-30T03:36:00.656Z,100454.25
2017-09-30T03:38:28.073Z,100455.47
2017-09-30T03:40:55.469Z,100448.53
2017-09-30T03:43:22.870Z,100449.98
2017-09-30T03:45:50.267Z,100448.39
2017-09-30T03:48:17.668Z,100452.41
2017-09-30T03:50:45.070Z,100440.79
2017-09-30T03:53:12.470Z,100436.02
2017-09-30T03:55:39.883Z,100441.11
2017-09-30T03:58:07.279Z,100441.78
2017-09-30T04:00:34.682Z,100440.44
2017-09-30T04:03:02.079Z,100444.05
2017-09-30T04:05:29.474Z,100450.09
2017-09-30T04:07:56.877Z,100440.14
2017-09-30T04:10:24.258Z,100437.50
2017-09-30T04:12:51.666Z,100435.08
2017-09-30T04:15:19.063Z,100431.22
2017-09-30T04:17:46.458Z,100429.45
2017-09-30T04:20:13.870Z,100436.70
2017-09-30T04:22:41.266Z,100430.80
2017-09-30T04:25:08.676Z,100423.87
2017-09-30T04:27:36.070Z,100420.61
2017-09-30T04:30:03.478Z,100414.24
2017-09-30T04:32:30.882Z,100404.73
2017-09-30T04:34:58.280Z,100408.09
2017-09-30T04:37:25.745Z,100399.05
2017-09-30T04:39:53.127Z,100398.53
2017-09-30T04:42:20.537Z,100403.81
2017-09-30T04:44:47.925Z,100424.27
2017-09-30T04:47:15.318Z,100425.44
2017-09-30T04:49:42.720Z,100433.20
2017-09-30T04:52:10.107Z,100434.88
2017-09-30T04:54:37.514Z,100439.20
2017-09-30T04:57:04.922Z,100415.81
2017-09-30T04:59:32.314Z,100420.70
2017-09-30T05:01:59.709Z,100426.98
2017-09-30T05:04:27.114Z,100418.47
2017-09-30T05:06:54.503Z,100422.00
2017-09-30T05:09:21.898Z,100431.21
2017-09-30T05:11:49.294Z,100434.22
2017-09-30T05:14:16.714Z,100424.55
2017-09-30T05:16:44.102Z,100433.06
2017-09-30T05:19:11.499Z,100432.69
2017-09-30T05:21:38.897Z,100431.06
2017-09-30T05:24:06.290Z,100435.80
2017-09-30T05:26:33.698Z,100434.96
2017-09-30T05:29:01.105Z,100435.16
2017-09-30T05:31:32.106Z,100428.03
2017-09-30T05:33:59.506Z,100429.47
2017-09-30T05:36:26.891Z,100429.62
2017-09-30T05:38:54.290Z,100437.48
2017-09-30T05:41:21.674Z,100435.42
2017-09-30T05:43:49.082Z,100440.95
2017-09-30T05:46:16.478Z,100435.92
2017-09-30T05:48:43.892Z,100436.42
2017-09-30T05:51:11.284Z,100434.84
2017-09-30T05:53:38.679Z,100430.81
2017-09-30T05:56:06.082Z,100432.91
2017-09-30T05:58:33.496Z,100430.63
2017-09-30T06:01:00.878Z,100431.75
2017-09-30T06:03:28.299Z,100426.91
2017-09-30T06:05:55.695Z,100436.07
2017-09-30T06:08:23.085Z,100431.01
2017-09-30T06:10:50.501Z,100430.16
2017-09-30T06:13:18.311Z,100431.61
2017-09-30T06:15:45.702Z,100433.52
2017-09-30T06:18:13.091Z,100438.78
2017-09-30T06:20:40.494Z,100450.27
2017-09-30T06:23:07.892Z,100458.36
2017-09-30T06:25:35.283Z,100463.80
2017-09-30T06:28:15.164Z,100454.32
2017-09-30T06:30:42.552Z,100455.02
2017-09-30T06:33:09.946Z,100458.04
2017-09-30T06:35:37.330Z,100452.79
2017-09-30T06:38:04.722Z,100452.00
2017-09-30T06:40:32.111Z,100445.83
2017-09-30T06:42:59.502Z,100449.77
2017-09-30T06:45:26.895Z,100448.98
2017-09-30T06:47:54.282Z,100443.27
2017-09-30T06:50:21.678Z,100442.00
2017-09-30T06:52:49.067Z,100443.08
2017-09-30T06:55:16.463Z,100440.93
2017-09-30T06:57:43.847Z,100444.88
2017-09-30T07:00:11.239Z,100447.81
2017-09-30T07:02:38.630Z,100445.12
2017-09-30T07:05:06.019Z,100441.64
2017-09-30T07:07:33.410Z,100437.63
2017-09-30T07:10:00.816Z,100440.38
2017-09-30T07:12:28.194Z,100443.36
2017-09-30T07:14:55.589Z,100436.48
2017-09-30T07:17:22.984Z,100438.70
2017-09-30T07:19:50.417Z,100439.54
2017-09-30T07:22:17.790Z,100444.14
2017-09-30T07:24:45.183Z,100446.93
2017-09-30T07:27:12.590Z,100445.80
2017-09-30T07:29:39.982Z,100444.88
2017-09-30T07:32:07.386Z,100437.91
2017-09-30T07:34:34.781Z,100445.65
2017-09-30T07:37:02.174Z,100438.27
2017-09-30T07:39:29.579Z,100438.95
2017-09-30T07:41:56.975Z,100433.50
2017-09-30T07:44:24.382Z,100430.91
2017-09-30T07:46:51.781Z,100437.31
2017-09-30T07:49:19.175Z,100436.11
2017-09-30T07:51:46.578Z,100435.52
2017-09-30T07:54:13.981Z,100442.80
2017-09-30T07:56:41.396Z,100445.41
2017-09-30T07:59:08.791Z,100441.88
2017-09-30T08:01:36.186Z,100442.84
2017-09-30T08:04:03.582Z,100440.25
2017-09-30T08:06:30.979Z,100436.38
2017-09-30T08:08:58.390Z,100438.76
2017-09-30T08:11:25.788Z,100438.76
2017-09-30T08:13:53.178Z,100436.11
2017-09-30T08:16:20.580Z,100428.56
2017-09-30T08:18:48.213Z,100416.01
2017-09-30T08:21:15.608Z,100417.39
2017-09-30T08:23:43.019Z,100416.70
2017-09-30T08:26:12.489Z,100410.78
2017-09-30T08:28:39.882Z,100407.47
2017-09-30T08:31:07.286Z,100403.08
2017-09-30T08:33:34.699Z,100394.81
2017-09-30T08:36:02.094Z,100392.56
2017-09-30T08:38:29.497Z,100390.55
2017-09-30T08:40:57.776Z,100389.90
2017-09-30T08:43:25.182Z,100383.84
2017-09-30T08:45:52.589Z,100382.03
2017-09-30T08:48:20.958Z,100375.02
2017-09-30T08:50:48.358Z,100380.23
2017-09-30T08:53:15.758Z,100378.56
2017-09-30T08:55:43.160Z,100378.45
2017-09-30T08:58:10.563Z,100379.61
2017-09-30T09:00:37.978Z,100373.16
2017-09-30T09:03:05.378Z,100366.54
2017-09-30T09:05:32.778Z,100375.08
2017-09-30T09:08:00.219Z,100377.78
2017-09-30T09:10:27.635Z,100372.55
2017-09-30T09:12:55.031Z,100375.66
2017-09-30T09:15:22.426Z,100363.67
2017-09-30T09:17:49.828Z,100361.23
2017-09-30T09:20:17.218Z,100355.72
2017-09-30T09:22:44.650Z,100346.98
2017-09-30T09:25:12.114Z,100346.88
2017-09-30T09:27:39.517Z,100349.77
2017-09-30T09:30:06.939Z,100355.33
2017-09-30T09:32:41.126Z,100361.33
2017-09-30T09:35:08.555Z,100366.24
2017-09-30T09:37:35.999Z,100362.31
2017-09-30T09:40:03.406Z,100370.62
2017-09-30T09:42:30.857Z,100366.53
2017-09-30T09:44:58.251Z,100362.90
2017-09-30T09:47:25.658Z,100359.48
2017-09-30T09:49:53.078Z,100350.58
2017-09-30T09:52:20.487Z,100359.09
2017-09-30T09:54:47.886Z,100362.06
2017-09-30T09:57:15.292Z,100359.89
2017-09-30T09:59:42.694Z,100358.10
2017-09-30T10:02:10.119Z,100356.39
2017-09-30T10:04:37.543Z,100358.66
2017-09-30T10:07:04.944Z,100357.75
2017-09-30T10:09:32.340Z,100358.41
2017-09-30T10:11:59.742Z,100358.05
2017-09-30T10:14:27.827Z,100357.85
2017-09-30T10:16:55.226Z,100359.34
2017-09-30T10:19:22.635Z,100369.92
2017-09-30T10:21:56.401Z,100384.25
2017-09-30T10:24:23.801Z,100380.36
2017-09-30T10:26:51.215Z,100380.94
2017-09-30T10:29:18.646Z,100378.30
2017-09-30T10:31:46.045Z,100381.84
2017-09-30T10:34:13.442Z,100385.06
2017-09-30T10:36:40.967Z,100395.36
2017-09-30T10:39:08.383Z,100389.42
2017-09-30T10:41:35.774Z,100393.09
2017-09-30T10:44:05.826Z,100398.45
2017-09-30T10:46:33.235Z,100396.13
2017-09-30T10:49:00.626Z,100401.22
2017-09-30T10:51:28.039Z,100395.14
2017-09-30T10:53:55.555Z,100397.70
2017-09-30T10:56:22.940Z,100398.12
2017-09-30T10:58:56.658Z,100400.98
2017-09-30T11:01:31.289Z,100402.80
2017-09-30T11:03:58.742Z,100397.97
2017-09-30T11:06:26.198Z,100405.25
2017-09-30T11:09:00.218Z,100408.64
2017-09-30T11:11:27.602Z,100406.09
2017-09-30T11:13:54.994Z,100410.53
2017-09-30T11:16:22.398Z,100409.78
2017-09-30T11:18:49.786Z,100411.20
2017-09-30T11:21:17.187Z,100410.60
2017-09-30T11:23:44.593Z,100414.36
2017-09-30T11:26:11.994Z,100412.89
2017-09-30T11:28:39.395Z,100412.80
2017-09-30T11:31:06.790Z,100415.22
2017-09-30T11:33:34.197Z,100411.44
2017-09-30T11:36:01.596Z,100411.11
2017-09-30T11:38:28.994Z,100406.73
2017-09-30T11:40:56.404Z,100417.60
2017-09-30T11:43:23.861Z,100410.63
2017-09-30T11:45:51.249Z,100415.76
2017-09-30T11:48:31.855Z,100418.16
2017-09-30T11:50:59.246Z,100419.53
2017-09-30T11:53:26.635Z,100414.09
2017-09-30T11:55:54.026Z,100422.17
2017-09-30T11:58:21.427Z,100424.55
2017-09-30T12:00:48.880Z,100426.66
2017-09-30T12:03:16.268Z,100427.53
2017-09-30T12:05:43.734Z,100425.39
2017-09-30T12:08:11.144Z,100424.48
2017-09-30T12:10:38.534Z,100422.63
2017-09-30T12:13:05.943Z,100416.39
2017-09-30T12:15:33.338Z,100414.08
2017-09-30T12:18:00.738Z,100416.20
2017-09-30T12:20:28.140Z,100421.94
2017-09-30T12:22:55.547Z,100415.63
2017-09-30T12:25:22.946Z,100416.16
2017-09-30T12:27:50.340Z,100418.76
2017-09-30T12:30:17.742Z,100423.36
2017-09-30T12:32:45.142Z,100432.62
2017-09-30T12:35:12.555Z,100427.73
2017-09-30T12:37:39.962Z,100438.89
2017-09-30T12:40:07.381Z,100435.56
2017-09-30T12:42:34.790Z,100441.48
2017-09-30T12:45:02.207Z,100445.03
2017-09-30T12:47:29.618Z,100445.19
2017-09-30T12:49:57.020Z,100451.42
2017-09-30T12:52:24.423Z,100451.27
2017-09-30T12:54:51.827Z,100445.34
2017-09-30T12:57:19.223Z,100449.51
2017-09-30T12:59:46.632Z,100446.54
2017-09-30T13:02:14.026Z,100444.91
2017-09-30T13:04:41.430Z,100449.36
2017-09-30T13:07:08.825Z,100443.18
2017-09-30T13:09:36.222Z,100441.70
2017-09-30T13:12:03.626Z,100439.30
2017-09-30T13:14:31.024Z,100438.09
2017-09-30T13:16:58.431Z,100447.81
2017-09-30T13:19:25.827Z,100453.73
2017-09-30T13:21:53.238Z,100458.97
2017-09-30T13:24:20.636Z,100464.94
2017-09-30T13:26:48.030Z,100466.77
2017-09-30T13:29:15.432Z,100472.64
2017-09-30T13:31:42.838Z,100480.28
2017-09-30T13:34:10.251Z,100487.83
2017-09-30T13:36:37.650Z,100490.62
2017-09-30T13:39:05.060Z,100490.41
2017-09-30T13:41:32.458Z,100496.31
2017-09-30T13:43:59.858Z,100505.38
2017-09-30T13:46:27.281Z,100512.34
2017-09-30T13:48:54.680Z,100519.98
2017-09-30T13:51:22.082Z,100522.99
2017-09-30T13:53:49.474Z,100508.63
2017-09-30T13:56:16.883Z,100509.67
2017-09-30T13:58:44.279Z,100515.63
2017-09-30T14:01:11.670Z,100517.04
2017-09-30T14:03:39.066Z,100516.92
2017-09-30T14:06:07.292Z,100522.88
2017-09-30T14:08:34.687Z,100516.16
2017-09-30T14:11:02.082Z,100519.36
2017-09-30T14:13:29.636Z,100520.85
2017-09-30T14:15:57.030Z,100521.53
2017-09-30T14:18:24.430Z,100525.20
2017-09-30T14:20:51.857Z,100521.06
2017-09-30T14:23:19.250Z,100529.83
2017-09-30T14:25:46.674Z,100528.09
2017-09-30T14:28:14.077Z,100540.84
2017-09-30T14:30:41.488Z,100532.18
2017-09-30T14:33:08.895Z,100552.08
2017-09-30T14:35:36.281Z,100560.88
2017-09-30T14:38:03.691Z,100568.18
2017-09-30T14:40:31.093Z,100571.78
2017-09-30T14:42:58.486Z,100571.16
2017-09-30T14:45:25.883Z,100573.91
2017-09-30T14:47:53.295Z,100572.20
2017-09-30T14:50:20.687Z,100565.58
2017-09-30T14:52:48.086Z,100561.30
2017-09-30T14:55:15.494Z,100559.50
2017-09-30T14:57:42.906Z,100562.86
2017-09-30T15:00:10.319Z,100566.30
2017-09-30T15:02:37.695Z,100569.81
2017-09-30T15:05:05.102Z,100567.30
2017-09-30T15:07:32.492Z,100562.81
2017-09-30T15:09:59.890Z,100568.27
2017-09-30T15:12:27.310Z,100569.18
2017-09-30T15:14:54.706Z,100571.16
2017-09-30T15:17:22.114Z,100574.08
2017-09-30T15:19:49.532Z,100574.67
2017-09-30T15:22:16.927Z,100573.41
2017-09-30T15:24:44.329Z,100575.59
2017-09-30T15:27:11.737Z,100577.19
2017-09-30T15:29:39.150Z,100571.86
2017-09-30T15:32:06.543Z,100573.04
2017-09-30T15:34:33.939Z,100581.75
2017-09-30T15:37:01.346Z,100580.84
2017-09-30T15:39:28.755Z,100584.31
2017-09-30T15:41:56.155Z,100584.65
2017-09-30T15:44:23.550Z,100587.58
2017-09-30T15:46:50.951Z,100592.44
2017-09-30T15:49:18.357Z,100600.16
2017-09-30T15:51:45.758Z,100599.02
2017-09-30T15:54:13.145Z,100599.86
2017-09-30T15:56:40.556Z,100597.34
2017-09-30T15:59:07.960Z,100605.02
2017-09-30T16:01:35.414Z,100606.06
2017-09-30T16:04:02.806Z,100608.91
2017-09-30T16:06:30.199Z,100612.31
2017-09-30T16:08:57.598Z,100620.31
2017-09-30T16:11:24.986Z,100611.38
2017-09-30T16:13:52.408Z,100604.49
2017-09-30T16:16:19.800Z,100609.59
2017-09-30T16:18:47.879Z,100616.92
2017-09-30T16:21:15.283Z,100619.55
2017-09-30T16:23:42.686Z,100625.59
2017-09-30T16:26:10.082Z,100623.06
2017-09-30T16:28:37.485Z,100630.17
2017-09-30T16:31:04.884Z,100624.82
2017-09-30T16:33:32.277Z,100627.35
2017-09-30T16:35:59.665Z,100633.16
2017-09-30T16:38:27.069Z,100628.19
2017-09-30T16:40:54.450Z,100630.27
2017-09-30T16:43:21.841Z,100624.94
2017-09-30T16:45:49.257Z,100617.94
2017-09-30T16:48:16.658Z,100620.67
2017-09-30T16:50:44.050Z,100621.45
2017-09-30T16:53:11.462Z,100619.25
2017-09-30T16:55:38.862Z,100611.45
2017-09-30T16:58:06.258Z,100615.82
2017-09-30T17:00:33.657Z,100610.88
2017-09-30T17:03:01.856Z,100623.20
2017-09-30T17:05:29.318Z,100624.94
2017-09-30T17:07:56.746Z,100625.92
2017-09-30T17:10:24.142Z,100629.40
2017-09-30T17:12:51.550Z,100636.84
2017-09-30T17:15:19.614Z,100641.09
2017-09-30T17:17:47.088Z,100640.50
2017-09-30T17:20:14.550Z,100640.88
2017-09-30T17:22:41.968Z,100649.84
2017-09-30T17:25:09.364Z,100645.02
2017-09-30T17:27:36.759Z,100650.19
2017-09-30T17:30:04.214Z,100650.73
2017-09-30T17:32:31.861Z,100654.84
2017-09-30T17:34:59.245Z,100664.59
2017-09-30T17:37:26.648Z,100655.70
2017-09-30T17:39:55.003Z,100657.37
2017-09-30T17:42:23.422Z,100658.28
2017-09-30T17:44:50.822Z,100660.66
2017-09-30T17:47:18.874Z,100654.86
2017-09-30T17:49:46.310Z,100648.39
2017-09-30T17:52:15.786Z,100649.78
2017-09-30T17:54:43.180Z,100651.89
2017-09-30T17:57:10.602Z,100661.30
2017-09-30T17:59:38.002Z,100660.91
2017-09-30T18:02:05.412Z,100665.16
2017-09-30T18:04:32.819Z,100663.54
2017-09-30T18:07:00.235Z,100664.77
2017-09-30T18:09:28.025Z,100663.70
2017-09-30T18:11:55.410Z,100666.84
2017-09-30T18:14:22.818Z,100662.36
2017-09-30T18:16:50.221Z,100662.89
2017-09-30T18:19:18.441Z,100659.20
2017-09-30T18:21:45.822Z,100664.14
2017-09-30T18:24:13.219Z,100668.73
2017-09-30T18:26:40.620Z,100670.34
2017-09-30T18:29:08.010Z,100671.36
2017-09-30T18:31:35.432Z,100668.47
2017-09-30T18:34:02.826Z,100676.17
2017-09-30T18:36:30.223Z,100676.84
2017-09-30T18:38:57.626Z,100675.52
2017-09-30T18:41:25.023Z,100683.25
2017-09-30T18:44:02.663Z,100688.95
2017-09-30T18:46:30.100Z,100695.81
2017-09-30T18:48:58.342Z,100702.31
2017-09-30T18:51:25.769Z,100700.08
2017-09-30T18:53:53.150Z,100702.34
2017-09-30T18:56:20.595Z,100703.27
2017-09-30T18:58:48.595Z,100713.38
2017-09-30T19:01:16.008Z,100713.63
2017-09-30T19:03:43.800Z,100709.41
2017-09-30T19:06:11.223Z,100710.72
2017-09-30T19:08:38.618Z,100714.20
2017-09-30T19:11:06.046Z,100717.55
2017-09-30T19:13:37.822Z,100719.47
2017-09-30T19:16:05.229Z,100717.99
2017-09-30T19:18:32.637Z,100723.92
2017-09-30T19:21:00.079Z,100717.41
2017-09-30T19:23:27.495Z,100717.03
2017-09-30T19:25:54.896Z,100722.25
2017-09-30T19:28:22.290Z,100729.14
2017-09-30T19:30:49.698Z,100735.10
2017-09-30T19:33:17.110Z,100740.81
2017-09-30T19:35:44.522Z,100743.09
2017-09-30T19:38:11.926Z,100744.83
2017-09-30T19:40:39.343Z,100749.33
2017-09-30T19:43:06.734Z,100745.73
2017-09-30T19:45:34.131Z,100753.02
2017-09-30T19:48:01.536Z,100756.09
2017-09-30T19:50:28.930Z,100760.00
2017-09-30T19:52:56.345Z,100762.06
2017-09-30T19:55:23.742Z,100763.46
2017-09-30T19:57:51.162Z,100765.91
2017-09-30T20:00:18.563Z,100774.84
2017-09-30T20:02:45.955Z,100773.72
2017-09-30T20:05:13.354Z,100775.98
2017-09-30T20:07:40.750Z,100779.47
2017-09-30T20:10:08.150Z,100775.15
2017-09-30T20:12:35.546Z,100778.06
2017-09-30T20:15:02.958Z,100778.15
2017-09-30T20:17:30.359Z,100781.50
2017-09-30T20:19:57.758Z,100776.69
2017-09-30T20:22:25.157Z,100781.91
2017-09-30T20:24:52.554Z,100784.44
2017-09-30T20:27:19.959Z,100783.63
2017-09-30T20:29:47.354Z,100782.22
2017-09-30T20:32:14.780Z,100785.26
2017-09-30T20:34:42.170Z,100780.02
2017-09-30T20:37:09.568Z,100779.73
2017-09-30T20:39:36.970Z,100781.41
2017-09-30T20:42:04.364Z,100776.72
2017-09-30T20:44:31.767Z,100773.05
2017-09-30T20:46:59.159Z,100773.48
2017-09-30T20:49:26.572Z,100773.28
2017-09-30T20:51:53.968Z,100769.59
2017-09-30T20:54:21.369Z,100768.07
2017-09-30T20:56:48.771Z,100778.06
2017-09-30T20:59:16.169Z,100775.51
2017-09-30T21:01:43.586Z,100779.50
2017-09-30T21:04:10.984Z,100776.53
2017-09-30T21:06:38.404Z,100780.55
2017-09-30T21:09:05.799Z,100776.46
2017-09-30T21:11:33.193Z,100779.45
2017-09-30T21:14:00.593Z,100783.34
2017-09-30T21:16:27.989Z,100786.75
2017-09-30T21:18:55.406Z,100780.27
2017-09-30T21:21:22.803Z,100784.81
2017-09-30T21:23:50.235Z,100788.52
2017-09-30T21:26:17.630Z,100789.93
2017-09-30T21:28:45.031Z,100789.93
2017-09-30T21:31:12.440Z,100798.59
2017-09-30T21:33:39.830Z,100797.64
2017-09-30T21:36:07.232Z,100802.18
2017-09-30T21:38:34.634Z,100794.28
2017-09-30T21:41:02.052Z,100794.66
2017-09-30T21:43:29.450Z,100797.56
2017-09-30T21:45:56.846Z,100796.95
2017-09-30T21:48:24.246Z,100799.00
2017-09-30T21:50:51.639Z,100792.52
2017-09-30T21:53:19.038Z,100789.95
2017-09-30T21:55:46.434Z,100782.66
2017-09-30T21:58:13.851Z,100786.54
2017-09-30T22:00:41.254Z,100786.05
2017-09-30T22:03:08.643Z,100780.47
2017-09-30T22:05:36.043Z,100786.42
2017-09-30T22:08:03.439Z,100782.94
2017-09-30T22:10:30.842Z,100789.92
2017-09-30T22:12:58.243Z,100792.08
2017-09-30T22:15:25.639Z,100793.19
2017-09-30T22:17:53.039Z,100795.77
2017-09-30T22:20:20.437Z,100796.87
2017-09-30T22:22:47.834Z,100799.45
2017-09-30T22:25:15.235Z,100792.05
2017-09-30T22:27:42.646Z,100793.77
2017-09-30T22:30:10.054Z,100798.42
2017-09-30T22:32:37.450Z,100796.13
2017-09-30T22:35:04.876Z,100798.29
2017-09-30T22:37:32.270Z,100795.20
2017-09-30T22:39:59.666Z,100793.98
2017-09-30T22:42:27.075Z,100794.17
2017-09-30T22:44:54.466Z,100788.94
2017-09-30T22:47:21.890Z,100791.10
2017-09-30T22:49:49.283Z,100787.89
2017-09-30T22:52:16.674Z,100788.60
2017-09-30T22:54:44.382Z,100796.41
2017-09-30T22:57:11.785Z,100801.20
2017-09-30T22:59:39.221Z,100800.55
2017-09-30T23:02:06.596Z,100805.45
2017-09-30T23:04:33.992Z,100806.09
2017-09-30T23:07:01.393Z,100800.76
2017-09-30T23:09:28.787Z,100797.25
2017-09-30T23:11:56.190Z,100796.34
2017-09-30T23:14:23.590Z,100802.78
2017-09-30T23:16:54.170Z,100802.88
2017-09-30T23:19:21.567Z,100809.13
2017-09-30T23:21:48.967Z,100808.44
2017-09-30T23:24:16.363Z,100810.07
2017-09-30T23:26:43.762Z,100806.67
2017-09-30T23:29:11.171Z,100807.88
2017-09-30T23:31:38.564Z,100814.05
2017-09-30T23:34:05.959Z,100818.05
2017-09-30T23:36:33.358Z,100816.10
2017-09-30T23:39:00.755Z,100822.14
2017-09-30T23:41:28.159Z,100825.62
2017-09-30T23:43:55.551Z,100826.23
2017-09-30T23:46:22.970Z,100826.32
2017-09-30T23:48:50.366Z,100825.59
2017-09-30T23:51:17.771Z,100830.48
2017-09-30T23:53:45.174Z,100822.70
2017-09-30T23:56:12.567Z,100834.47
2017-09-30T23:58:39.970Z,100831.29
